Time;durP1;ratioP1;P1;durP2;ratioP2;P2;SDS_P1;SDS_P2;PMS_P1;PMS_P2;Temp;Humidity;BMP_temperature;BMP_pressure;BME280_temperature;BME280_humidity;BME280_pressure;Samples;Min_cycle;Max_cycle;Signal;HPM_P1;HPM_P2
2023/04/21 00:01:12;;;;;;;7.78;7.07;;;;;;;;;;4997142;28;20218;-81
2023/04/21 00:03:40;;;;;;;7.05;6.38;;;;;;;;;;4996861;28;20224;-81
2023/04/21 00:06:09;;;;;;;7.18;6.00;;;;;;;;;;4997140;28;20633;-80
2023/04/21 00:08:39;;;;;;;8.27;7.47;;;;;;;;;;4996609;28;20235;-81
2023/04/21 00:11:06;;;;;;;8.40;7.60;;;;;;;;;;4996403;28;20255;-82
2023/04/21 00:13:34;;;;;;;7.00;6.30;;;;;;;;;;4996087;28;20199;-80
2023/04/21 00:16:02;;;;;;;9.48;8.68;;;;;;;;;;4995796;28;20589;-81
2023/04/21 00:18:29;;;;;;;9.45;8.45;;;;;;;;;;4996464;28;20232;-81
2023/04/21 00:20:57;;;;;;;9.40;8.40;;;;;;;;;;4997069;28;20302;-80
2023/04/21 00:23:24;;;;;;;7.60;6.85;;;;;;;;;;4996844;28;20294;-81
2023/04/21 00:25:53;;;;;;;7.30;6.60;;;;;;;;;;4996102;28;20223;-81
2023/04/21 00:28:20;;;;;;;7.40;6.65;;;;;;;;;;4996183;28;20230;-80
2023/04/21 00:30:48;;;;;;;8.32;7.45;;;;;;;;;;4995655;28;20224;-82
2023/04/21 00:33:15;;;;;;;10.88;9.43;;;;;;;;;;4996214;28;20731;-80
2023/04/21 00:35:43;;;;;;;8.02;7.22;;;;;;;;;;5003237;28;20196;-81
2023/04/21 00:38:10;;;;;;;8.95;8.05;;;;;;;;;;5010623;28;20206;-81
2023/04/21 00:40:38;;;;;;;10.32;8.38;;;;;;;;;;5015140;28;20233;-81
2023/04/21 00:43:08;;;;;;;7.78;7.07;;;;;;;;;;5015312;28;20693;-81
2023/04/21 00:45:35;;;;;;;8.35;7.28;;;;;;;;;;5014659;28;20311;-81
2023/04/21 00:48:03;;;;;;;8.52;7.68;;;;;;;;;;5003542;28;20267;-81
2023/04/21 00:50:30;;;;;;;8.55;7.65;;;;;;;;;;5011356;28;20303;-80
2023/04/21 00:52:58;;;;;;;7.38;6.47;;;;;;;;;;5011098;28;20231;-81
2023/04/21 00:55:26;;;;;;;7.97;7.22;;;;;;;;;;5009775;28;20246;-81
2023/04/21 00:57:55;;;;;;;8.82;7.90;;;;;;;;;;5008038;28;20698;-82
2023/04/21 01:00:24;;;;;;;10.48;9.18;;;;;;;;;;5011036;28;20254;-82
2023/04/21 01:02:51;;;;;;;10.45;8.98;;;;;;;;;;5007567;28;20208;-83
2023/04/21 01:05:19;;;;;;;7.78;6.97;;;;;;;;;;5002471;28;20262;-83
2023/04/21 01:07:46;;;;;;;10.20;9.02;;;;;;;;;;5000514;28;20199;-82
2023/04/21 01:10:14;;;;;;;8.65;7.30;;;;;;;;;;5002410;28;20676;-82
2023/04/21 01:12:45;;;;;;;9.68;7.97;;;;;;;;;;5001748;28;20204;-82
2023/04/21 01:15:13;;;;;;;8.73;7.82;;;;;;;;;;5000854;28;20235;-83
2023/04/21 01:17:44;;;;;;;11.95;9.60;;;;;;;;;;4998648;28;20207;-82
2023/04/21 01:20:14;;;;;;;9.15;8.25;;;;;;;;;;4997269;28;20775;-83
2023/04/21 01:22:44;;;;;;;7.80;7.00;;;;;;;;;;4997991;28;20209;-83
2023/04/21 01:25:12;;;;;;;7.70;7.00;;;;;;;;;;4996807;28;20657;-82
2023/04/21 01:27:39;;;;;;;9.85;8.50;;;;;;;;;;4996610;28;20263;-82
2023/04/21 01:30:08;;;;;;;9.27;7.93;;;;;;;;;;4996144;28;20318;-82
2023/04/21 01:32:36;;;;;;;10.35;9.13;;;;;;;;;;4996928;28;20204;-83
2023/04/21 01:35:05;;;;;;;12.02;9.07;;;;;;;;;;4997020;28;20668;-83
2023/04/21 01:37:33;;;;;;;7.82;6.93;;;;;;;;;;4996854;28;20618;-81
2023/04/21 01:40:04;;;;;;;9.18;8.23;;;;;;;;;;4995566;28;20306;-82
2023/04/21 01:42:33;;;;;;;8.35;7.55;;;;;;;;;;4996339;28;20204;-82
2023/04/21 01:45:01;;;;;;;6.45;5.85;;;;;;;;;;4996820;28;20850;-83
2023/04/21 01:47:28;;;;;;;7.53;6.68;;;;;;;;;;4996041;28;20559;-82
2023/04/21 01:49:56;;;;;;;8.40;7.57;;;;;;;;;;4995998;28;20241;-82
2023/04/21 01:52:23;;;;;;;7.88;6.10;;;;;;;;;;4995797;28;20267;-82
2023/04/21 01:54:51;;;;;;;9.55;8.55;;;;;;;;;;4996069;28;20235;-82
2023/04/21 01:57:19;;;;;;;8.55;7.70;;;;;;;;;;4996077;28;20286;-83
2023/04/21 01:59:48;;;;;;;6.72;6.13;;;;;;;;;;4996081;28;20310;-81
2023/04/21 02:02:15;;;;;;;6.65;5.53;;;;;;;;;;4996019;28;20215;-83
2023/04/21 02:04:43;;;;;;;8.65;6.68;;;;;;;;;;4995422;28;20832;-83
2023/04/21 02:07:10;;;;;;;5.75;5.22;;;;;;;;;;4995754;28;20614;-82
2023/04/21 02:09:38;;;;;;;7.65;6.70;;;;;;;;;;4995415;28;20230;-82
2023/04/21 02:12:06;;;;;;;9.90;8.48;;;;;;;;;;4995416;28;20258;-81
2023/04/21 02:14:36;;;;;;;9.55;7.30;;;;;;;;;;4995273;28;20206;-82
2023/04/21 02:17:04;;;;;;;7.50;6.80;;;;;;;;;;4995220;28;20603;-81
2023/04/21 02:19:31;;;;;;;6.18;5.57;;;;;;;;;;4995069;28;20661;-82
2023/04/21 02:21:59;;;;;;;6.38;5.70;;;;;;;;;;4994804;28;20210;-81
2023/04/21 02:24:26;;;;;;;5.65;5.15;;;;;;;;;;4995204;28;20589;-82
2023/04/21 02:26:54;;;;;;;9.88;8.52;;;;;;;;;;4994951;28;20597;-81
2023/04/21 02:29:21;;;;;;;6.95;6.25;;;;;;;;;;4994622;28;20302;-82
2023/04/21 02:31:50;;;;;;;8.90;7.93;;;;;;;;;;4993887;28;20298;-81
2023/04/21 02:34:18;;;;;;;6.65;6.05;;;;;;;;;;4994721;28;20298;-82
2023/04/21 02:36:45;;;;;;;8.18;7.35;;;;;;;;;;4994430;28;20676;-82
2023/04/21 02:39:12;;;;;;;12.45;8.57;;;;;;;;;;4994604;28;20302;-82
2023/04/21 02:41:40;;;;;;;10.43;9.07;;;;;;;;;;4994900;28;20286;-80
2023/04/21 02:44:07;;;;;;;8.30;7.50;;;;;;;;;;4994872;28;20199;-82
2023/04/21 02:46:35;;;;;;;7.97;7.18;;;;;;;;;;4994943;28;20227;-82
2023/04/21 02:49:04;;;;;;;7.45;6.72;;;;;;;;;;4994322;28;20204;-82
2023/04/21 02:51:31;;;;;;;7.43;6.60;;;;;;;;;;4994641;28;20286;-82
2023/04/21 02:53:59;;;;;;;8.38;7.57;;;;;;;;;;4994629;28;20298;-83
2023/04/21 02:56:27;;;;;;;7.38;6.63;;;;;;;;;;4994542;28;20347;-82
2023/04/21 02:58:54;;;;;;;8.57;7.63;;;;;;;;;;4993975;28;20200;-82
2023/04/21 03:01:21;;;;;;;7.72;6.80;;;;;;;;;;4994053;28;20292;-81
2023/04/21 03:03:49;;;;;;;7.85;7.05;;;;;;;;;;4994825;28;20286;-82
2023/04/21 03:06:18;;;;;;;8.48;7.60;;;;;;;;;;4994730;28;20259;-82
2023/04/21 03:08:45;;;;;;;9.45;8.02;;;;;;;;;;4993865;28;20286;-81
2023/04/21 03:11:13;;;;;;;7.65;6.85;;;;;;;;;;4994163;28;20738;-81
2023/04/21 03:13:40;;;;;;;8.75;7.28;;;;;;;;;;4994444;28;20294;-82
2023/04/21 03:16:08;;;;;;;7.55;6.85;;;;;;;;;;4994350;28;20207;-82
2023/04/21 03:18:36;;;;;;;8.90;7.28;;;;;;;;;;4994218;28;20207;-81
2023/04/21 03:21:03;;;;;;;8.60;7.80;;;;;;;;;;4993893;28;20302;-81
2023/04/21 03:23:32;;;;;;;7.30;6.60;;;;;;;;;;4993796;28;20750;-82
2023/04/21 03:26:00;;;;;;;6.90;6.20;;;;;;;;;;4994218;28;20224;-81
2023/04/21 03:28:27;;;;;;;7.53;6.65;;;;;;;;;;4994323;28;20279;-80
2023/04/21 03:30:54;;;;;;;9.50;8.57;;;;;;;;;;4993935;28;20330;-80
2023/04/21 03:33:22;;;;;;;9.68;8.68;;;;;;;;;;4994029;28;20227;-81
2023/04/21 03:35:49;;;;;;;8.52;6.97;;;;;;;;;;4993425;28;20287;-80
2023/04/21 03:38:17;;;;;;;8.48;7.57;;;;;;;;;;4993427;28;20290;-81
2023/04/21 03:40:46;;;;;;;7.30;6.55;;;;;;;;;;4993838;28;20222;-81
2023/04/21 03:43:13;;;;;;;7.78;6.97;;;;;;;;;;4995254;28;20294;-81
2023/04/21 03:45:40;;;;;;;7.68;6.95;;;;;;;;;;5001941;28;20219;-82
2023/04/21 03:48:08;;;;;;;6.63;6.03;;;;;;;;;;5006835;28;20255;-82
2023/04/21 03:50:35;;;;;;;7.00;6.30;;;;;;;;;;4999511;28;20295;-81
2023/04/21 03:53:03;;;;;;;5.80;5.30;;;;;;;;;;4998639;28;20299;-82
2023/04/21 03:55:30;;;;;;;8.93;5.82;;;;;;;;;;4998067;28;20204;-83
2023/04/21 03:57:59;;;;;;;7.13;6.38;;;;;;;;;;4998782;28;20238;-82
2023/04/21 04:00:27;;;;;;;8.02;7.22;;;;;;;;;;4998436;28;20223;-83
2023/04/21 04:02:54;;;;;;;9.32;8.13;;;;;;;;;;4998121;28;20267;-82
2023/04/21 04:05:22;;;;;;;8.00;6.07;;;;;;;;;;4997713;28;20219;-82
2023/04/21 04:07:49;;;;;;;6.63;5.95;;;;;;;;;;5001031;28;20310;-82
2023/04/21 04:10:16;;;;;;;5.82;5.32;;;;;;;;;;5004322;28;20291;-82
2023/04/21 04:12:44;;;;;;;6.75;6.00;;;;;;;;;;5004037;28;20210;-81
2023/04/21 04:15:13;;;;;;;5.63;5.05;;;;;;;;;;5002766;28;20295;-82
2023/04/21 04:17:41;;;;;;;6.55;5.90;;;;;;;;;;5004386;28;20215;-82
2023/04/21 04:20:09;;;;;;;7.30;6.57;;;;;;;;;;5004148;28;20291;-82
2023/04/21 04:22:36;;;;;;;6.32;5.72;;;;;;;;;;5000788;28;20221;-83
2023/04/21 04:25:04;;;;;;;7.57;5.78;;;;;;;;;;5000030;28;20218;-83
2023/04/21 04:27:32;;;;;;;6.75;6.15;;;;;;;;;;4998796;28;20233;-83
2023/04/21 04:29:59;;;;;;;6.78;6.05;;;;;;;;;;4997698;28;20695;-83
2023/04/21 04:32:28;;;;;;;6.00;5.50;;;;;;;;;;4997022;28;20294;-82
2023/04/21 04:34:56;;;;;;;7.25;6.60;;;;;;;;;;4997857;28;20766;-82
2023/04/21 04:37:24;;;;;;;6.88;6.28;;;;;;;;;;4997973;28;20203;-82
2023/04/21 04:39:54;;;;;;;7.82;7.13;;;;;;;;;;4997483;28;20223;-83
2023/04/21 04:42:21;;;;;;;8.48;7.10;;;;;;;;;;4998318;28;20294;-83
2023/04/21 04:44:49;;;;;;;11.10;8.23;;;;;;;;;;4998616;28;20302;-83
2023/04/21 04:47:16;;;;;;;8.38;7.50;;;;;;;;;;4997579;28;20670;-83
2023/04/21 04:49:45;;;;;;;8.07;7.30;;;;;;;;;;4996818;28;20227;-82
2023/04/21 04:52:13;;;;;;;9.10;7.43;;;;;;;;;;4996824;28;20203;-82
2023/04/21 04:54:40;;;;;;;9.90;8.80;;;;;;;;;;4995851;28;20246;-83
2023/04/21 04:57:08;;;;;;;10.65;7.93;;;;;;;;;;4997701;28;20661;-82
2023/04/21 04:59:36;;;;;;;8.13;7.32;;;;;;;;;;4996934;28;20307;-82
2023/04/21 05:02:03;;;;;;;7.72;6.93;;;;;;;;;;4997505;28;20211;-81
2023/04/21 05:04:31;;;;;;;10.18;8.13;;;;;;;;;;4997962;28;20215;-82
2023/04/21 05:07:00;;;;;;;10.15;9.13;;;;;;;;;;4996561;28;20318;-82
2023/04/21 05:09:27;;;;;;;10.85;9.32;;;;;;;;;;4997375;28;20282;-82
2023/04/21 05:11:55;;;;;;;11.65;9.52;;;;;;;;;;4997027;28;20570;-82
2023/04/21 05:14:22;;;;;;;10.13;9.05;;;;;;;;;;4996319;28;20239;-82
2023/04/21 05:16:50;;;;;;;9.43;8.63;;;;;;;;;;4996756;28;20687;-82
2023/04/21 05:19:18;;;;;;;11.93;9.40;;;;;;;;;;4997840;28;20507;-82
2023/04/21 05:21:45;;;;;;;11.13;9.95;;;;;;;;;;4996781;28;20208;-83
2023/04/21 05:24:14;;;;;;;15.25;10.20;;;;;;;;;;4996920;28;20206;-83
2023/04/21 05:26:41;;;;;;;12.10;10.70;;;;;;;;;;4996275;28;20210;-83
2023/04/21 05:29:10;;;;;;;12.30;10.50;;;;;;;;;;4995634;28;20323;-83
2023/04/21 05:31:37;;;;;;;9.68;8.57;;;;;;;;;;4997332;28;20219;-82
2023/04/21 05:34:05;;;;;;;7.75;6.95;;;;;;;;;;4996165;28;20204;-83
2023/04/21 05:36:32;;;;;;;6.95;6.32;;;;;;;;;;4995906;28;20204;-81
2023/04/21 05:39:00;;;;;;;7.10;6.40;;;;;;;;;;4996363;28;20286;-83
2023/04/21 05:41:35;;;;;;;8.80;7.40;;;;;;;;;;4996070;28;20213;-83
2023/04/21 05:44:02;;;;;;;8.43;6.60;;;;;;;;;;4995722;28;20214;-84
2023/04/21 05:46:30;;;;;;;8.85;7.70;;;;;;;;;;4994965;28;20228;-83
2023/04/21 05:48:57;;;;;;;6.05;5.53;;;;;;;;;;4994121;28;20696;-83
2023/04/21 05:51:25;;;;;;;8.27;6.82;;;;;;;;;;5033880;23;20319;-83
2023/04/21 05:53:53;;;;;;;8.20;7.28;;;;;;;;;;5013595;28;20213;-84
2023/04/21 05:56:21;;;;;;;7.47;6.35;;;;;;;;;;5013211;28;20289;-83
2023/04/21 05:58:49;;;;;;;7.07;6.38;;;;;;;;;;5013166;28;20210;-84
2023/04/21 06:01:17;;;;;;;11.00;8.20;;;;;;;;;;5013305;28;20227;-84
2023/04/21 06:03:47;;;;;;;9.52;8.57;;;;;;;;;;5013354;28;20290;-84
2023/04/21 06:06:15;;;;;;;10.98;8.13;;;;;;;;;;5012925;28;20265;-84
2023/04/21 06:08:42;;;;;;;8.57;7.15;;;;;;;;;;5012998;28;20223;-85
2023/04/21 06:11:10;;;;;;;10.07;8.48;;;;;;;;;;5013214;28;20311;-84
2023/04/21 06:13:37;;;;;;;11.52;9.20;;;;;;;;;;5013069;28;20227;-84
2023/04/21 06:16:06;;;;;;;11.25;8.27;;;;;;;;;;5012808;28;20286;-84
2023/04/21 06:18:34;;;;;;;10.20;8.25;;;;;;;;;;5012516;28;20286;-84
2023/04/21 06:21:02;;;;;;;10.80;9.70;;;;;;;;;;5012841;28;20283;-83
2023/04/21 06:23:29;;;;;;;9.75;8.57;;;;;;;;;;5012514;28;20242;-84
2023/04/21 06:26:03;;;;;;;8.48;7.68;;;;;;;;;;5012835;28;20230;-84
2023/04/21 06:28:31;;;;;;;11.07;7.22;;;;;;;;;;5012325;28;20231;-84
2023/04/21 06:30:59;;;;;;;8.32;7.55;;;;;;;;;;5012247;28;20574;-83
2023/04/21 06:33:28;;;;;;;9.52;7.45;;;;;;;;;;5012867;28;20203;-84
2023/04/21 06:35:56;;;;;;;7.47;6.68;;;;;;;;;;5023886;28;20266;-84
2023/04/21 06:38:24;;;;;;;5.70;5.20;;;;;;;;;;5023431;28;20312;-84
2023/04/21 06:40:51;;;;;;;8.13;7.35;;;;;;;;;;5031991;28;20529;-84
2023/04/21 06:43:19;;;;;;;7.32;6.20;;;;;;;;;;5032218;28;20216;-84
2023/04/21 06:45:46;;;;;;;6.10;5.40;;;;;;;;;;5032280;28;20576;-83
2023/04/21 06:48:14;;;;;;;6.63;5.65;;;;;;;;;;5013683;28;20318;-83
2023/04/21 06:50:45;;;;;;;8.80;7.90;;;;;;;;;;5012026;28;20317;-84
2023/04/21 06:53:12;;;;;;;6.97;6.28;;;;;;;;;;5012228;28;20207;-84
2023/04/21 06:55:40;;;;;;;10.02;9.02;;;;;;;;;;5012200;28;20307;-83
2023/04/21 06:58:07;;;;;;;8.35;7.55;;;;;;;;;;5012386;28;20644;-84
2023/04/21 07:00:35;;;;;;;10.18;7.85;;;;;;;;;;5011889;28;20218;-84
2023/04/21 07:03:02;;;;;;;8.93;7.80;;;;;;;;;;5012084;28;20583;-83
2023/04/21 07:05:30;;;;;;;7.40;6.30;;;;;;;;;;5011872;28;20767;-84
2023/04/21 07:07:59;;;;;;;7.13;6.28;;;;;;;;;;5011743;28;20741;-83
2023/04/21 07:10:27;;;;;;;11.02;8.45;;;;;;;;;;5012342;28;20314;-83
2023/04/21 07:12:55;;;;;;;8.68;7.22;;;;;;;;;;5012245;28;20286;-83
2023/04/21 07:15:22;;;;;;;6.72;6.05;;;;;;;;;;5012274;28;20234;-83
2023/04/21 07:17:50;;;;;;;9.02;5.90;;;;;;;;;;5013171;28;20297;-83
2023/04/21 07:20:17;;;;;;;5.95;5.28;;;;;;;;;;5016175;28;20226;-84
2023/04/21 07:22:45;;;;;;;7.57;5.70;;;;;;;;;;5016208;28;20206;-83
2023/04/21 07:25:14;;;;;;;6.18;5.25;;;;;;;;;;5016297;28;20278;-84
2023/04/21 07:27:41;;;;;;;5.72;5.22;;;;;;;;;;5015666;28;20706;-83
2023/04/21 07:30:10;;;;;;;5.85;5.25;;;;;;;;;;5015655;28;20265;-84
2023/04/21 07:32:37;;;;;;;7.18;6.20;;;;;;;;;;5015885;28;20226;-83
2023/04/21 07:35:06;;;;;;;5.57;5.10;;;;;;;;;;5016311;28;20290;-83
2023/04/21 07:37:33;;;;;;;6.82;6.13;;;;;;;;;;5015570;28;20730;-84
2023/04/21 07:40:01;;;;;;;6.15;5.55;;;;;;;;;;5015745;28;20330;-84
2023/04/21 07:42:30;;;;;;;8.15;7.32;;;;;;;;;;5016085;28;20191;-84
2023/04/21 07:44:59;;;;;;;11.02;9.02;;;;;;;;;;5015908;28;20766;-83
2023/04/21 07:47:27;;;;;;;10.10;8.65;;;;;;;;;;5015810;28;20301;-83
2023/04/21 07:49:54;;;;;;;8.73;7.55;;;;;;;;;;5015514;28;20230;-85
2023/04/21 07:52:22;;;;;;;7.32;6.55;;;;;;;;;;5015483;28;20282;-84
2023/04/21 07:54:50;;;;;;;7.63;6.80;;;;;;;;;;5015576;28;20289;-84
2023/04/21 07:57:17;;;;;;;8.50;7.32;;;;;;;;;;5015829;28;20207;-83
2023/04/21 07:59:46;;;;;;;11.38;8.63;;;;;;;;;;5014685;28;20852;-83
2023/04/21 08:02:14;;;;;;;7.80;7.05;;;;;;;;;;5015513;28;20230;-84
2023/04/21 08:04:41;;;;;;;9.15;8.02;;;;;;;;;;5015676;28;20234;-84
2023/04/21 08:07:12;;;;;;;10.55;9.55;;;;;;;;;;5015188;28;20207;-85
2023/04/21 08:09:39;;;;;;;10.05;9.05;;;;;;;;;;5015696;28;20227;-85
2023/04/21 08:12:07;;;;;;;7.18;6.20;;;;;;;;;;5015671;28;20203;-85
2023/04/21 08:14:34;;;;;;;9.93;8.93;;;;;;;;;;5015574;28;20203;-85
2023/04/21 08:17:03;;;;;;;10.75;9.07;;;;;;;;;;5015523;28;20211;-85
2023/04/21 08:19:31;;;;;;;9.48;8.48;;;;;;;;;;5014672;28;20592;-83
2023/04/21 08:21:58;;;;;;;8.80;7.85;;;;;;;;;;5015336;28;20227;-83
2023/04/21 08:24:26;;;;;;;9.77;8.38;;;;;;;;;;5014831;28;20460;-84
2023/04/21 08:26:53;;;;;;;9.52;8.30;;;;;;;;;;5014980;28;20654;-85
2023/04/21 08:29:21;;;;;;;10.27;8.75;;;;;;;;;;5013380;28;20323;-85
2023/04/21 08:31:49;;;;;;;9.85;8.85;;;;;;;;;;5014344;28;20734;-84
2023/04/21 08:34:18;;;;;;;9.70;8.73;;;;;;;;;;5014832;28;20658;-85
2023/04/21 08:36:46;;;;;;;9.27;8.20;;;;;;;;;;5017616;28;20559;-86
2023/04/21 08:39:15;;;;;;;7.90;6.82;;;;;;;;;;5015412;28;20195;-85
2023/04/21 08:41:42;;;;;;;10.43;7.60;;;;;;;;;;5015100;28;20207;-84
2023/04/21 08:44:10;;;;;;;8.40;7.30;;;;;;;;;;5014871;28;20231;-85
2023/04/21 08:46:38;;;;;;;7.78;6.85;;;;;;;;;;5015651;28;20203;-85
2023/04/21 08:49:06;;;;;;;8.15;6.93;;;;;;;;;;5014749;28;20242;-85
2023/04/21 08:51:35;;;;;;;8.45;7.35;;;;;;;;;;5014299;28;20317;-85
2023/04/21 08:54:03;;;;;;;9.60;7.18;;;;;;;;;;5017182;28;20216;-85
2023/04/21 08:56:30;;;;;;;9.05;8.15;;;;;;;;;;5014388;28;20202;-84
2023/04/21 08:58:58;;;;;;;7.90;7.10;;;;;;;;;;5014049;28;20626;-85
2023/04/21 09:01:25;;;;;;;7.97;6.70;;;;;;;;;;5014701;28;20249;-84
2023/04/21 09:03:53;;;;;;;6.45;5.82;;;;;;;;;;5014796;28;20294;-84
2023/04/21 09:06:20;;;;;;;7.22;6.53;;;;;;;;;;5014273;28;20209;-84
2023/04/21 09:08:55;;;;;;;6.40;5.82;;;;;;;;;;5013641;28;20294;-85
2023/04/21 09:11:23;;;;;;;6.97;6.25;;;;;;;;;;5014861;28;20754;-85
2023/04/21 09:13:51;;;;;;;13.43;6.80;;;;;;;;;;5014843;28;20210;-86
2023/04/21 09:16:21;;;;;;;6.85;6.15;;;;;;;;;;5014763;28;20659;-87
2023/04/21 09:18:49;;;;;;;7.85;6.70;;;;;;;;;;5013964;28;20207;-85
2023/04/21 09:21:18;;;;;;;7.13;6.53;;;;;;;;;;5014265;28;20278;-85
2023/04/21 09:23:48;;;;;;;8.38;7.30;;;;;;;;;;5014441;28;20214;-85
2023/04/21 09:26:18;;;;;;;7.25;6.50;;;;;;;;;;5014300;28;20685;-85
2023/04/21 09:28:47;;;;;;;8.82;6.38;;;;;;;;;;5014853;28;20617;-85
2023/04/21 09:31:16;;;;;;;6.55;5.95;;;;;;;;;;5014310;28;20226;-86
2023/04/21 09:33:48;;;;;;;7.07;6.35;;;;;;;;;;5013798;28;20294;-85
2023/04/21 09:36:20;;;;;;;6.00;5.05;;;;;;;;;;5013904;28;20684;-85
2023/04/21 09:38:57;;;;;;;6.57;5.97;;;;;;;;;;5014370;28;20203;-85
2023/04/21 09:41:26;;;;;;;10.30;6.13;;;;;;;;;;5013911;28;20226;-85
2023/04/21 09:43:53;;;;;;;7.05;6.32;;;;;;;;;;5013579;28;20689;-86
2023/04/21 09:46:21;;;;;;;7.25;6.13;;;;;;;;;;5013670;28;20238;-86
2023/04/21 09:48:49;;;;;;;7.97;6.78;;;;;;;;;;5013503;28;20290;-85
2023/04/21 09:51:18;;;;;;;7.00;5.65;;;;;;;;;;5013177;28;20230;-85
2023/04/21 09:53:46;;;;;;;5.43;4.88;;;;;;;;;;5013577;28;20210;-86
2023/04/21 09:56:16;;;;;;;5.38;4.88;;;;;;;;;;5013060;28;20203;-85
2023/04/21 09:58:53;;;;;;;7.82;5.88;;;;;;;;;;5013055;28;20671;-85
2023/04/21 10:01:21;;;;;;;6.57;5.88;;;;;;;;;;5013700;28;20257;-86
2023/04/21 10:03:49;;;;;;;5.53;5.03;;;;;;;;;;5013794;28;20638;-86
2023/04/21 10:06:17;;;;;;;5.68;5.18;;;;;;;;;;5013156;28;20581;-86
2023/04/21 10:08:45;;;;;;;5.53;5.03;;;;;;;;;;5013114;28;20654;-86
2023/04/21 10:11:13;;;;;;;5.82;4.70;;;;;;;;;;5013064;28;20321;-85
2023/04/21 10:13:42;;;;;;;5.78;5.30;;;;;;;;;;5013156;28;20694;-85
2023/04/21 10:16:11;;;;;;;5.75;5.00;;;;;;;;;;5012944;28;20722;-85
2023/04/21 10:18:42;;;;;;;5.65;4.80;;;;;;;;;;5014355;28;20289;-85
2023/04/21 10:21:13;;;;;;;5.93;5.25;;;;;;;;;;5013442;28;20662;-85
2023/04/21 10:23:43;;;;;;;5.30;4.80;;;;;;;;;;5013514;28;20253;-86
2023/04/21 10:26:13;;;;;;;5.45;5.00;;;;;;;;;;5013154;28;20211;-86
2023/04/21 10:28:52;;;;;;;6.70;5.72;;;;;;;;;;5013207;28;20195;-86
2023/04/21 10:31:30;;;;;;;5.63;4.85;;;;;;;;;;5013449;28;20281;-86
2023/04/21 10:34:34;;;;;;;4.90;4.50;;;;;;;;;;5013198;28;20743;-86
2023/04/21 10:37:15;;;;;;;6.03;4.95;;;;;;;;;;4971737;28;20291;-85
2023/04/21 10:39:56;;;;;;;4.68;4.28;;;;;;;;;;5008784;28;20222;-86
2023/04/21 10:42:38;;;;;;;4.80;4.13;;;;;;;;;;5012944;28;20550;-86
2023/04/21 10:45:13;;;;;;;5.53;4.45;;;;;;;;;;5011113;28;20211;-84
2023/04/21 10:47:47;;;;;;;4.95;4.30;;;;;;;;;;5012943;28;20746;-85
2023/04/21 10:50:21;;;;;;;4.30;3.97;;;;;;;;;;5013105;28;20713;-86
2023/04/21 10:52:59;;;;;;;4.72;4.15;;;;;;;;;;5012512;28;20289;-86
2023/04/21 10:55:28;;;;;;;4.53;4.13;;;;;;;;;;5013501;28;20212;-87
2023/04/21 10:57:57;;;;;;;5.05;4.65;;;;;;;;;;5012931;28;20297;-86
2023/04/21 11:00:26;;;;;;;5.53;4.97;;;;;;;;;;5013144;28;20261;-86
2023/04/21 11:03:01;;;;;;;5.60;5.07;;;;;;;;;;5013317;28;20207;-85
2023/04/21 11:05:33;;;;;;;6.03;4.68;;;;;;;;;;5013026;28;20198;-86
2023/04/21 11:08:06;;;;;;;5.10;4.60;;;;;;;;;;5013371;28;20203;-86
2023/04/21 11:10:50;;;;;;;4.70;4.30;;;;;;;;;;5013742;28;20266;-85
2023/04/21 11:13:20;;;;;;;6.80;4.40;;;;;;;;;;5013484;28;20293;-85
2023/04/21 11:16:07;;;;;;;4.63;4.22;;;;;;;;;;5013459;28;20291;-86
2023/04/21 11:18:44;;;;;;;4.78;4.38;;;;;;;;;;4993785;28;20223;-85
2023/04/21 11:21:16;;;;;;;4.68;4.28;;;;;;;;;;4993381;28;20255;-86
2023/04/21 11:23:55;;;;;;;5.55;4.70;;;;;;;;;;4992790;28;20220;-85
2023/04/21 11:26:33;;;;;;;4.50;4.07;;;;;;;;;;4993123;28;20727;-85
2023/04/21 11:29:03;;;;;;;5.57;4.13;;;;;;;;;;4993017;28;20195;-85
2023/04/21 11:31:31;;;;;;;7.35;4.82;;;;;;;;;;4996346;28;20230;-86
2023/04/21 11:34:00;;;;;;;8.07;4.63;;;;;;;;;;5012625;28;20233;-86
2023/04/21 11:36:29;;;;;;;7.65;4.07;;;;;;;;;;5012480;28;20205;-85
2023/04/21 11:38:57;;;;;;;5.18;4.47;;;;;;;;;;5012181;28;20230;-86
2023/04/21 11:41:25;;;;;;;6.40;4.80;;;;;;;;;;5012511;28;20953;-87
2023/04/21 11:43:53;;;;;;;7.55;6.30;;;;;;;;;;5012550;28;20195;-85
2023/04/21 11:46:25;;;;;;;5.13;4.68;;;;;;;;;;5012954;28;20227;-85
2023/04/21 11:49:03;;;;;;;7.07;4.55;;;;;;;;;;5012532;28;20387;-83
2023/04/21 11:51:35;;;;;;;6.07;5.00;;;;;;;;;;5035881;23;20234;-83
2023/04/21 11:54:04;;;;;;;4.68;4.03;;;;;;;;;;5016502;28;20286;-83
2023/04/21 11:56:36;;;;;;;6.28;4.40;;;;;;;;;;5015596;28;20199;-82
2023/04/21 11:59:08;;;;;;;6.00;4.20;;;;;;;;;;5015523;28;20203;-83
2023/04/21 12:01:42;;;;;;;4.68;4.28;;;;;;;;;;5015480;28;20230;-83
2023/04/21 12:04:15;;;;;;;4.43;3.72;;;;;;;;;;5016834;28;20594;-83
2023/04/21 12:06:44;;;;;;;5.43;4.93;;;;;;;;;;5018388;28;20207;-82
2023/04/21 12:09:18;;;;;;;5.30;4.05;;;;;;;;;;5021907;28;20285;-82
2023/04/21 12:11:49;;;;;;;6.32;5.72;;;;;;;;;;5020703;28;20221;-83
2023/04/21 12:14:18;;;;;;;6.57;4.47;;;;;;;;;;5025714;28;20219;-83
2023/04/21 12:16:48;;;;;;;4.40;3.95;;;;;;;;;;5025935;28;20211;-84
2023/04/21 12:19:24;;;;;;;5.82;4.10;;;;;;;;;;5026389;28;20726;-83
2023/04/21 12:21:55;;;;;;;5.25;4.75;;;;;;;;;;5023751;28;20230;-82
2023/04/21 12:24:22;;;;;;;5.10;3.85;;;;;;;;;;5024601;28;20218;-83
2023/04/21 12:26:50;;;;;;;5.20;4.25;;;;;;;;;;5024160;28;20270;-83
2023/04/21 12:29:17;;;;;;;4.38;3.90;;;;;;;;;;5023371;28;20234;-83
2023/04/21 12:31:45;;;;;;;5.00;4.50;;;;;;;;;;5022242;28;20680;-82
2023/04/21 12:34:12;;;;;;;4.60;4.20;;;;;;;;;;5023847;28;20229;-83
2023/04/21 12:36:41;;;;;;;4.00;3.70;;;;;;;;;;5031435;28;20229;-83
2023/04/21 12:39:09;;;;;;;5.20;4.57;;;;;;;;;;5038210;28;20237;-82
2023/04/21 12:41:36;;;;;;;6.05;5.45;;;;;;;;;;5042942;28;20222;-83
2023/04/21 12:44:03;;;;;;;4.30;3.90;;;;;;;;;;5039980;28;20265;-83
2023/04/21 12:46:31;;;;;;;4.97;4.10;;;;;;;;;;5035405;28;20213;-83
2023/04/21 12:48:59;;;;;;;7.25;4.63;;;;;;;;;;5020615;28;20636;-82
2023/04/21 12:51:27;;;;;;;4.38;3.97;;;;;;;;;;5021618;28;20290;-82
2023/04/21 12:53:56;;;;;;;4.50;4.10;;;;;;;;;;5021459;28;20258;-83
2023/04/21 12:56:23;;;;;;;5.85;5.13;;;;;;;;;;5021992;28;20667;-83
2023/04/21 12:58:50;;;;;;;5.22;4.72;;;;;;;;;;5020976;28;20271;-83
2023/04/21 13:01:18;;;;;;;4.38;3.97;;;;;;;;;;5020091;28;20730;-83
2023/04/21 13:03:45;;;;;;;5.88;4.10;;;;;;;;;;5020237;28;20286;-83
2023/04/21 13:06:13;;;;;;;6.38;4.93;;;;;;;;;;5019388;28;20231;-83
2023/04/21 13:08:40;;;;;;;5.38;4.75;;;;;;;;;;5019264;28;20210;-83
2023/04/21 13:11:09;;;;;;;5.10;4.60;;;;;;;;;;5019524;28;20227;-83
2023/04/21 13:13:37;;;;;;;4.47;4.00;;;;;;;;;;5020454;28;20612;-82
2023/04/21 13:16:06;;;;;;;4.78;4.25;;;;;;;;;;5018040;28;20206;-82
2023/04/21 13:18:34;;;;;;;6.22;4.55;;;;;;;;;;5017423;28;20203;-82
2023/04/21 13:21:02;;;;;;;5.97;4.28;;;;;;;;;;5017392;28;20310;-83
2023/04/21 13:23:30;;;;;;;4.55;4.10;;;;;;;;;;5017051;28;20261;-82
2023/04/21 13:25:57;;;;;;;4.72;4.22;;;;;;;;;;5015915;28;20290;-81
2023/04/21 13:28:26;;;;;;;5.20;3.83;;;;;;;;;;5017746;28;20293;-82
2023/04/21 13:30:54;;;;;;;6.07;4.68;;;;;;;;;;5016279;28;20785;-82
2023/04/21 13:33:23;;;;;;;4.60;3.65;;;;;;;;;;5014475;28;20769;-82
2023/04/21 13:35:51;;;;;;;5.00;4.55;;;;;;;;;;5016379;28;20203;-82
2023/04/21 13:38:19;;;;;;;5.45;4.38;;;;;;;;;;5016108;28;20298;-84
2023/04/21 13:40:47;;;;;;;7.82;4.95;;;;;;;;;;5015012;28;20706;-82
2023/04/21 13:43:15;;;;;;;4.95;3.78;;;;;;;;;;5014633;28;20693;-83
2023/04/21 13:45:44;;;;;;;3.97;3.67;;;;;;;;;;5014545;28;20294;-82
2023/04/21 13:48:12;;;;;;;4.38;3.97;;;;;;;;;;5015221;28;20218;-82
2023/04/21 13:50:39;;;;;;;5.88;4.40;;;;;;;;;;5015271;28;20321;-82
2023/04/21 13:53:07;;;;;;;5.75;4.85;;;;;;;;;;5014313;28;20315;-82
2023/04/21 13:55:34;;;;;;;7.53;5.03;;;;;;;;;;5015162;28;20290;-82
2023/04/21 13:58:02;;;;;;;4.75;3.53;;;;;;;;;;5014182;28;20293;-82
2023/04/21 14:00:29;;;;;;;3.97;3.60;;;;;;;;;;5014348;28;20226;-82
2023/04/21 14:02:58;;;;;;;3.92;3.60;;;;;;;;;;5015061;28;20205;-83
2023/04/21 14:05:25;;;;;;;3.65;3.35;;;;;;;;;;5015494;28;20282;-82
2023/04/21 14:07:53;;;;;;;6.47;4.03;;;;;;;;;;5016068;28;20213;-82
2023/04/21 14:10:21;;;;;;;4.90;3.50;;;;;;;;;;5016716;28;20269;-82
2023/04/21 14:12:48;;;;;;;4.15;3.72;;;;;;;;;;5015104;28;20227;-82
2023/04/21 14:15:15;;;;;;;4.20;3.30;;;;;;;;;;5014821;28;20282;-82
2023/04/21 14:17:43;;;;;;;4.20;3.40;;;;;;;;;;5014420;28;20297;-81
2023/04/21 14:20:12;;;;;;;4.07;3.75;;;;;;;;;;5014852;28;20313;-81
2023/04/21 14:22:40;;;;;;;3.28;3.08;;;;;;;;;;5016448;28;20705;-81
2023/04/21 14:25:08;;;;;;;4.32;2.90;;;;;;;;;;5014440;28;20301;-82
2023/04/21 14:27:36;;;;;;;3.60;3.30;;;;;;;;;;5014721;28;20213;-82
2023/04/21 14:30:03;;;;;;;5.82;5.30;;;;;;;;;;5015721;28;20309;-83
2023/04/21 14:32:31;;;;;;;3.67;3.38;;;;;;;;;;5015625;28;20211;-81
2023/04/21 14:35:02;;;;;;;4.72;3.90;;;;;;;;;;5016386;28;20549;-82
2023/04/21 14:37:31;;;;;;;4.32;3.10;;;;;;;;;;5014107;28;20203;-81
2023/04/21 14:39:59;;;;;;;4.15;3.75;;;;;;;;;;5013727;28;20728;-81
2023/04/21 14:42:27;;;;;;;4.20;3.78;;;;;;;;;;5013901;28;20199;-82
2023/04/21 14:44:54;;;;;;;4.68;4.25;;;;;;;;;;5014052;28;20294;-82
2023/04/21 14:47:22;;;;;;;5.95;3.78;;;;;;;;;;5014212;28;20237;-81
2023/04/21 14:49:51;;;;;;;3.45;3.15;;;;;;;;;;5014288;28;20215;-82